sensor_id;sensor_type;location;lat;lon;timestamp;pressure;altitude;pressure_sealevel;temperature;humidity
51147;BME280;37207;53.060;18.726;2022-08-02T00:01:55;100676.76;;;18.77;70.93
51147;BME280;37207;53.060;18.726;2022-08-02T00:04:26;100676.79;;;18.76;70.97
51147;BME280;37207;53.060;18.726;2022-08-02T00:06:54;100677.66;;;18.75;70.96
51147;BME280;37207;53.060;18.726;2022-08-02T00:09:21;100678.63;;;18.74;70.98
51147;BME280;37207;53.060;18.726;2022-08-02T00:11:48;100678.92;;;18.71;70.95
51147;BME280;37207;53.060;18.726;2022-08-02T00:14:15;100679.06;;;18.70;71.00
51147;BME280;37207;53.060;18.726;2022-08-02T00:16:42;100681.89;;;18.69;70.99
51147;BME280;37207;53.060;18.726;2022-08-02T00:19:09;100683.61;;;18.69;70.98
51147;BME280;37207;53.060;18.726;2022-08-02T00:21:37;100687.95;;;18.68;71.02
51147;BME280;37207;53.060;18.726;2022-08-02T00:24:04;100690.11;;;18.67;71.00
51147;BME280;37207;53.060;18.726;2022-08-02T00:26:31;100696.27;;;18.67;71.08
51147;BME280;37207;53.060;18.726;2022-08-02T00:28:58;100697.55;;;18.66;70.98
51147;BME280;37207;53.060;18.726;2022-08-02T00:31:26;100700.32;;;18.66;71.09
51147;BME280;37207;53.060;18.726;2022-08-02T00:33:53;100699.45;;;18.66;71.15
51147;BME280;37207;53.060;18.726;2022-08-02T00:36:21;100699.77;;;18.67;71.20
51147;BME280;37207;53.060;18.726;2022-08-02T00:38:51;100700.45;;;18.67;71.15
51147;BME280;37207;53.060;18.726;2022-08-02T00:41:20;100699.97;;;18.68;71.16
51147;BME280;37207;53.060;18.726;2022-08-02T00:43:49;100700.66;;;18.69;71.12
51147;BME280;37207;53.060;18.726;2022-08-02T00:46:19;100698.54;;;18.70;71.14
51147;BME280;37207;53.060;18.726;2022-08-02T00:48:47;100702.16;;;18.70;71.11
51147;BME280;37207;53.060;18.726;2022-08-02T00:51:17;100704.65;;;18.70;71.00
51147;BME280;37207;53.060;18.726;2022-08-02T00:53:44;100706.59;;;18.68;71.02
51147;BME280;37207;53.060;18.726;2022-08-02T00:56:12;100710.28;;;18.66;71.00
51147;BME280;37207;53.060;18.726;2022-08-02T00:58:40;100713.48;;;18.64;71.03
51147;BME280;37207;53.060;18.726;2022-08-02T01:01:07;100712.64;;;18.62;71.12
51147;BME280;37207;53.060;18.726;2022-08-02T01:03:35;100711.39;;;18.61;71.07
51147;BME280;37207;53.060;18.726;2022-08-02T01:06:02;100715.85;;;18.58;71.24
51147;BME280;37207;53.060;18.726;2022-08-02T01:08:30;100719.98;;;18.58;71.16
51147;BME280;37207;53.060;18.726;2022-08-02T01:10:57;100719.75;;;18.56;71.17
51147;BME280;37207;53.060;18.726;2022-08-02T01:13:25;100723.09;;;18.54;71.21
51147;BME280;37207;53.060;18.726;2022-08-02T01:16:01;100724.39;;;18.53;71.31
51147;BME280;37207;53.060;18.726;2022-08-02T01:18:53;100722.75;;;18.54;71.30
51147;BME280;37207;53.060;18.726;2022-08-02T01:21:52;100727.71;;;18.54;71.38
51147;BME280;37207;53.060;18.726;2022-08-02T01:24:43;100725.39;;;18.54;71.33
51147;BME280;37207;53.060;18.726;2022-08-02T01:30:06;100731.66;;;18.53;71.25
51147;BME280;37207;53.060;18.726;2022-08-02T01:32:41;100728.19;;;18.52;71.32
51147;BME280;37207;53.060;18.726;2022-08-02T01:35:13;100731.20;;;18.53;71.29
51147;BME280;37207;53.060;18.726;2022-08-02T01:37:45;100734.45;;;18.53;71.34
51147;BME280;37207;53.060;18.726;2022-08-02T01:40:22;100736.36;;;18.53;71.35
51147;BME280;37207;53.060;18.726;2022-08-02T01:42:53;100734.63;;;18.51;71.32
51147;BME280;37207;53.060;18.726;2022-08-02T01:45:31;100732.31;;;18.49;71.39
51147;BME280;37207;53.060;18.726;2022-08-02T01:48:00;100734.52;;;18.48;71.33
51147;BME280;37207;53.060;18.726;2022-08-02T01:50:30;100734.26;;;18.49;71.41
51147;BME280;37207;53.060;18.726;2022-08-02T01:53:05;100734.80;;;18.47;71.34
51147;BME280;37207;53.060;18.726;2022-08-02T01:55:38;100734.83;;;18.45;71.48
51147;BME280;37207;53.060;18.726;2022-08-02T01:58:08;100741.33;;;18.42;71.50
51147;BME280;37207;53.060;18.726;2022-08-02T02:00:39;100740.69;;;18.40;71.61
51147;BME280;37207;53.060;18.726;2022-08-02T02:03:13;100740.54;;;18.40;71.56
51147;BME280;37207;53.060;18.726;2022-08-02T02:05:42;100737.45;;;18.40;71.62
51147;BME280;37207;53.060;18.726;2022-08-02T02:08:11;100739.73;;;18.41;71.65
51147;BME280;37207;53.060;18.726;2022-08-02T02:10:39;100742.37;;;18.41;71.59
51147;BME280;37207;53.060;18.726;2022-08-02T02:13:11;100742.61;;;18.39;71.67
51147;BME280;37207;53.060;18.726;2022-08-02T02:15:46;100741.94;;;18.39;71.71
51147;BME280;37207;53.060;18.726;2022-08-02T02:18:17;100746.59;;;18.41;71.69
51147;BME280;37207;53.060;18.726;2022-08-02T02:20:47;100743.35;;;18.43;71.71
51147;BME280;37207;53.060;18.726;2022-08-02T02:23:14;100740.39;;;18.43;71.69
51147;BME280;37207;53.060;18.726;2022-08-02T02:25:44;100744.38;;;18.42;71.74
51147;BME280;37207;53.060;18.726;2022-08-02T02:28:14;100744.36;;;18.42;71.73
51147;BME280;37207;53.060;18.726;2022-08-02T02:30:48;100741.88;;;18.42;71.70
51147;BME280;37207;53.060;18.726;2022-08-02T02:33:21;100745.52;;;18.41;71.62
51147;BME280;37207;53.060;18.726;2022-08-02T02:35:50;100746.01;;;18.39;71.65
51147;BME280;37207;53.060;18.726;2022-08-02T02:38:20;100744.34;;;18.38;71.75
51147;BME280;37207;53.060;18.726;2022-08-02T02:40:52;100743.25;;;18.37;71.82
51147;BME280;37207;53.060;18.726;2022-08-02T02:43:20;100738.70;;;18.38;71.79
51147;BME280;37207;53.060;18.726;2022-08-02T02:45:49;100734.16;;;18.38;71.82
51147;BME280;37207;53.060;18.726;2022-08-02T02:48:21;100732.77;;;18.37;71.79
51147;BME280;37207;53.060;18.726;2022-08-02T02:50:49;100731.27;;;18.36;71.79
51147;BME280;37207;53.060;18.726;2022-08-02T02:53:18;100736.53;;;18.37;71.77
51147;BME280;37207;53.060;18.726;2022-08-02T02:55:50;100731.92;;;18.36;71.80
51147;BME280;37207;53.060;18.726;2022-08-02T02:58:17;100731.06;;;18.36;71.81
51147;BME280;37207;53.060;18.726;2022-08-02T03:00:45;100735.27;;;18.36;71.80
51147;BME280;37207;53.060;18.726;2022-08-02T03:03:31;100741.25;;;18.35;71.90
51147;BME280;37207;53.060;18.726;2022-08-02T03:05:59;100741.11;;;18.33;71.84
51147;BME280;37207;53.060;18.726;2022-08-02T03:08:26;100742.95;;;18.29;71.83
51147;BME280;37207;53.060;18.726;2022-08-02T03:10:54;100746.60;;;18.27;71.81
51147;BME280;37207;53.060;18.726;2022-08-02T03:13:22;100749.02;;;18.24;71.90
51147;BME280;37207;53.060;18.726;2022-08-02T03:15:51;100748.91;;;18.22;71.93
51147;BME280;37207;53.060;18.726;2022-08-02T03:18:30;100749.05;;;18.20;72.10
51147;BME280;37207;53.060;18.726;2022-08-02T03:21:02;100754.95;;;18.18;72.11
51147;BME280;37207;53.060;18.726;2022-08-02T03:23:33;100756.86;;;18.17;72.19
51147;BME280;37207;53.060;18.726;2022-08-02T03:26:01;100762.12;;;18.15;72.21
51147;BME280;37207;53.060;18.726;2022-08-02T03:28:29;100762.93;;;18.12;72.34
51147;BME280;37207;53.060;18.726;2022-08-02T03:30:57;100764.20;;;18.12;72.49
51147;BME280;37207;53.060;18.726;2022-08-02T03:33:25;100762.29;;;18.14;72.67
51147;BME280;37207;53.060;18.726;2022-08-02T03:35:54;100766.66;;;18.14;72.73
51147;BME280;37207;53.060;18.726;2022-08-02T03:38:24;100765.52;;;18.16;72.74
51147;BME280;37207;53.060;18.726;2022-08-02T03:40:53;100768.70;;;18.16;72.78
51147;BME280;37207;53.060;18.726;2022-08-02T03:43:22;100766.16;;;18.16;72.84
51147;BME280;37207;53.060;18.726;2022-08-02T03:45:50;100761.39;;;18.16;72.84
51147;BME280;37207;53.060;18.726;2022-08-02T03:48:18;100757.05;;;18.15;72.86
51147;BME280;37207;53.060;18.726;2022-08-02T03:50:47;100764.27;;;18.14;72.88
51147;BME280;37207;53.060;18.726;2022-08-02T03:53:15;100771.36;;;18.15;72.98
51147;BME280;37207;53.060;18.726;2022-08-02T03:55:44;100775.24;;;18.18;73.04
51147;BME280;37207;53.060;18.726;2022-08-02T03:58:18;100780.34;;;18.19;73.02
51147;BME280;37207;53.060;18.726;2022-08-02T04:00:51;100791.79;;;18.20;73.02
51147;BME280;37207;53.060;18.726;2022-08-02T04:03:21;100792.59;;;18.21;72.96
51147;BME280;37207;53.060;18.726;2022-08-02T04:05:49;100799.48;;;18.23;73.06
51147;BME280;37207;53.060;18.726;2022-08-02T04:08:17;100801.70;;;18.24;73.06
51147;BME280;37207;53.060;18.726;2022-08-02T04:10:44;100809.37;;;18.24;73.00
51147;BME280;37207;53.060;18.726;2022-08-02T04:13:33;100811.91;;;18.24;73.05
51147;BME280;37207;53.060;18.726;2022-08-02T04:16:05;100812.33;;;18.27;73.19
51147;BME280;37207;53.060;18.726;2022-08-02T04:18:39;100810.96;;;18.30;73.10
51147;BME280;37207;53.060;18.726;2022-08-02T04:21:08;100817.98;;;18.31;73.12
51147;BME280;37207;53.060;18.726;2022-08-02T04:23:39;100815.47;;;18.31;73.03
51147;BME280;37207;53.060;18.726;2022-08-02T04:26:08;100821.48;;;18.34;73.14
51147;BME280;37207;53.060;18.726;2022-08-02T04:28:38;100822.33;;;18.36;73.13
51147;BME280;37207;53.060;18.726;2022-08-02T04:31:07;100828.25;;;18.41;73.16
51147;BME280;37207;53.060;18.726;2022-08-02T04:33:35;100830.09;;;18.43;73.23
51147;BME280;37207;53.060;18.726;2022-08-02T04:36:05;100831.52;;;18.47;73.20
51147;BME280;37207;53.060;18.726;2022-08-02T04:38:33;100832.36;;;18.48;73.25
51147;BME280;37207;53.060;18.726;2022-08-02T04:41:00;100836.09;;;18.53;73.26
51147;BME280;37207;53.060;18.726;2022-08-02T04:43:27;100837.45;;;18.56;73.31
51147;BME280;37207;53.060;18.726;2022-08-02T04:45:56;100837.35;;;18.60;73.30
51147;BME280;37207;53.060;18.726;2022-08-02T04:48:23;100845.02;;;18.65;73.18
51147;BME280;37207;53.060;18.726;2022-08-02T04:50:50;100846.94;;;18.70;73.26
51147;BME280;37207;53.060;18.726;2022-08-02T04:53:19;100851.58;;;18.75;73.24
51147;BME280;37207;53.060;18.726;2022-08-02T04:55:47;100851.23;;;18.81;73.16
51147;BME280;37207;53.060;18.726;2022-08-02T04:58:14;100848.51;;;18.87;73.22
51147;BME280;37207;53.060;18.726;2022-08-02T05:00:42;100852.61;;;18.91;73.14
51147;BME280;37207;53.060;18.726;2022-08-02T05:03:11;100857.84;;;18.95;73.02
51147;BME280;37207;53.060;18.726;2022-08-02T05:05:41;100861.89;;;19.01;73.13
51147;BME280;37207;53.060;18.726;2022-08-02T05:08:08;100863.98;;;19.05;72.73
51147;BME280;37207;53.060;18.726;2022-08-02T05:10:35;100868.48;;;19.09;72.77
51147;BME280;37207;53.060;18.726;2022-08-02T05:13:12;100870.33;;;19.18;72.65
51147;BME280;37207;53.060;18.726;2022-08-02T05:15:40;100865.29;;;19.20;72.51
51147;BME280;37207;53.060;18.726;2022-08-02T05:18:08;100873.05;;;19.26;72.68
51147;BME280;37207;53.060;18.726;2022-08-02T05:20:35;100877.44;;;19.33;72.48
51147;BME280;37207;53.060;18.726;2022-08-02T05:23:02;100881.89;;;19.38;72.29
51147;BME280;37207;53.060;18.726;2022-08-02T05:25:30;100886.86;;;19.43;72.22
51147;BME280;37207;53.060;18.726;2022-08-02T05:27:58;100887.20;;;19.50;72.18
51147;BME280;37207;53.060;18.726;2022-08-02T05:30:26;100890.88;;;19.55;72.02
51147;BME280;37207;53.060;18.726;2022-08-02T05:32:53;100891.45;;;19.61;71.95
51147;BME280;37207;53.060;18.726;2022-08-02T05:35:22;100895.86;;;19.70;71.98
51147;BME280;37207;53.060;18.726;2022-08-02T05:37:51;100894.77;;;19.77;71.76
51147;BME280;37207;53.060;18.726;2022-08-02T05:40:19;100898.10;;;19.83;71.54
51147;BME280;37207;53.060;18.726;2022-08-02T05:42:47;100901.05;;;19.90;71.48
51147;BME280;37207;53.060;18.726;2022-08-02T05:45:14;100904.33;;;19.99;71.54
51147;BME280;37207;53.060;18.726;2022-08-02T05:47:42;100909.63;;;20.04;71.23
51147;BME280;37207;53.060;18.726;2022-08-02T05:50:10;100913.98;;;20.10;71.10
51147;BME280;37207;53.060;18.726;2022-08-02T05:52:50;100915.48;;;20.17;70.98
51147;BME280;37207;53.060;18.726;2022-08-02T05:55:34;100922.94;;;20.22;70.33
51147;BME280;37207;53.060;18.726;2022-08-02T06:00:41;100931.42;;;20.25;69.79
51147;BME280;37207;53.060;18.726;2022-08-02T06:08:19;100944.48;;;20.23;69.35
51147;BME280;37207;53.060;18.726;2022-08-02T06:10:47;100944.08;;;20.23;69.21
51147;BME280;37207;53.060;18.726;2022-08-02T06:13:17;100945.18;;;20.25;69.19
51147;BME280;37207;53.060;18.726;2022-08-02T06:15:50;100950.02;;;20.34;69.05
51147;BME280;37207;53.060;18.726;2022-08-02T06:18:18;100951.92;;;20.41;68.65
51147;BME280;37207;53.060;18.726;2022-08-02T06:20:49;100951.69;;;20.49;68.79
51147;BME280;37207;53.060;18.726;2022-08-02T06:23:16;100953.80;;;20.59;68.67
51147;BME280;37207;53.060;18.726;2022-08-02T06:25:50;100960.59;;;20.69;68.53
51147;BME280;37207;53.060;18.726;2022-08-02T06:28:20;100960.88;;;20.72;68.07
51147;BME280;37207;53.060;18.726;2022-08-02T06:30:48;100961.70;;;20.74;67.91
51147;BME280;37207;53.060;18.726;2022-08-02T06:33:16;100957.92;;;20.81;68.03
51147;BME280;37207;53.060;18.726;2022-08-02T06:35:56;100957.42;;;20.93;68.05
51147;BME280;37207;53.060;18.726;2022-08-02T06:38:32;100959.16;;;21.10;67.95
51147;BME280;37207;53.060;18.726;2022-08-02T06:41:08;100958.88;;;21.25;67.46
51147;BME280;37207;53.060;18.726;2022-08-02T06:46:10;100961.58;;;21.37;66.69
51147;BME280;37207;53.060;18.726;2022-08-02T06:48:37;100962.20;;;21.37;66.66
51147;BME280;37207;53.060;18.726;2022-08-02T06:51:07;100963.27;;;21.43;66.61
51147;BME280;37207;53.060;18.726;2022-08-02T06:53:34;100965.48;;;21.52;66.47
51147;BME280;37207;53.060;18.726;2022-08-02T06:56:01;100967.15;;;21.65;66.39
51147;BME280;37207;53.060;18.726;2022-08-02T06:58:29;100965.79;;;21.75;66.02
51147;BME280;37207;53.060;18.726;2022-08-02T07:00:57;100969.94;;;21.83;65.87
51147;BME280;37207;53.060;18.726;2022-08-02T07:03:25;100969.37;;;21.90;65.65
51147;BME280;37207;53.060;18.726;2022-08-02T07:05:53;100972.57;;;22.00;65.54
51147;BME280;37207;53.060;18.726;2022-08-02T07:08:20;100974.39;;;22.13;65.23
51147;BME280;37207;53.060;18.726;2022-08-02T07:10:48;100976.95;;;22.27;64.95
51147;BME280;37207;53.060;18.726;2022-08-02T07:13:16;100982.30;;;22.33;64.18
51147;BME280;37207;53.060;18.726;2022-08-02T07:15:43;100979.47;;;22.34;64.10
51147;BME280;37207;53.060;18.726;2022-08-02T07:18:10;100982.14;;;22.33;63.67
51147;BME280;37207;53.060;18.726;2022-08-02T07:20:41;100978.77;;;22.31;63.80
51147;BME280;37207;53.060;18.726;2022-08-02T07:23:08;100982.29;;;22.30;63.39
51147;BME280;37207;53.060;18.726;2022-08-02T07:25:37;100983.30;;;22.31;63.34
51147;BME280;37207;53.060;18.726;2022-08-02T07:28:05;100985.96;;;22.36;63.18
51147;BME280;37207;53.060;18.726;2022-08-02T07:30:32;100988.98;;;22.41;62.94
51147;BME280;37207;53.060;18.726;2022-08-02T07:33:03;100987.95;;;22.46;63.21
51147;BME280;37207;53.060;18.726;2022-08-02T07:35:30;100992.88;;;22.50;63.21
51147;BME280;37207;53.060;18.726;2022-08-02T07:37:58;100990.77;;;22.49;62.56
51147;BME280;37207;53.060;18.726;2022-08-02T07:40:25;100992.15;;;22.46;62.52
51147;BME280;37207;53.060;18.726;2022-08-02T07:42:54;100987.77;;;22.45;62.60
51147;BME280;37207;53.060;18.726;2022-08-02T07:45:24;100984.58;;;22.49;62.83
51147;BME280;37207;53.060;18.726;2022-08-02T07:47:52;100980.08;;;22.58;62.72
51147;BME280;37207;53.060;18.726;2022-08-02T07:50:20;100984.31;;;22.75;62.82
51147;BME280;37207;53.060;18.726;2022-08-02T07:52:48;100985.95;;;22.94;62.62
51147;BME280;37207;53.060;18.726;2022-08-02T07:55:16;100988.19;;;23.09;62.22
51147;BME280;37207;53.060;18.726;2022-08-02T07:57:46;100986.61;;;23.37;62.15
51147;BME280;37207;53.060;18.726;2022-08-02T08:00:14;100990.10;;;23.53;61.23
51147;BME280;37207;53.060;18.726;2022-08-02T08:02:44;100981.51;;;23.61;61.03
51147;BME280;37207;53.060;18.726;2022-08-02T08:05:12;100984.20;;;23.67;60.72
51147;BME280;37207;53.060;18.726;2022-08-02T08:07:39;100978.23;;;23.70;60.25
51147;BME280;37207;53.060;18.726;2022-08-02T08:10:07;100977.16;;;23.78;59.73
51147;BME280;37207;53.060;18.726;2022-08-02T08:12:34;100974.97;;;24.00;59.93
51147;BME280;37207;53.060;18.726;2022-08-02T08:15:03;100972.89;;;24.41;60.35
51147;BME280;37207;53.060;18.726;2022-08-02T08:17:30;100973.27;;;24.72;59.68
51147;BME280;37207;53.060;18.726;2022-08-02T08:19:58;100975.71;;;25.02;59.04
51147;BME280;37207;53.060;18.726;2022-08-02T08:22:26;100974.83;;;25.10;57.79
51147;BME280;37207;53.060;18.726;2022-08-02T08:24:56;100973.31;;;25.29;58.13
51147;BME280;37207;53.060;18.726;2022-08-02T08:27:24;100974.41;;;25.35;57.79
51147;BME280;37207;53.060;18.726;2022-08-02T08:29:52;100965.91;;;25.54;57.44
51147;BME280;37207;53.060;18.726;2022-08-02T08:32:19;100972.08;;;25.72;57.31
51147;BME280;37207;53.060;18.726;2022-08-02T08:34:48;100969.83;;;25.88;57.18
51147;BME280;37207;53.060;18.726;2022-08-02T08:37:15;100980.19;;;26.05;56.72
51147;BME280;37207;53.060;18.726;2022-08-02T08:39:42;100979.98;;;26.15;56.13
51147;BME280;37207;53.060;18.726;2022-08-02T08:42:10;100981.55;;;26.30;56.09
51147;BME280;37207;53.060;18.726;2022-08-02T08:44:37;100982.27;;;26.45;55.49
51147;BME280;37207;53.060;18.726;2022-08-02T08:47:04;100982.61;;;26.56;54.93
51147;BME280;37207;53.060;18.726;2022-08-02T08:49:39;100981.91;;;26.63;54.78
51147;BME280;37207;53.060;18.726;2022-08-02T08:52:07;100985.24;;;26.74;53.49
51147;BME280;37207;53.060;18.726;2022-08-02T08:54:37;100987.86;;;26.67;52.65
51147;BME280;37207;53.060;18.726;2022-08-02T08:57:07;100981.64;;;26.66;52.78
51147;BME280;37207;53.060;18.726;2022-08-02T08:59:35;100981.55;;;26.68;52.97
51147;BME280;37207;53.060;18.726;2022-08-02T09:02:03;100985.29;;;26.71;52.83
51147;BME280;37207;53.060;18.726;2022-08-02T09:04:31;100985.45;;;26.71;52.37
51147;BME280;37207;53.060;18.726;2022-08-02T09:06:58;100981.06;;;26.82;52.58
51147;BME280;37207;53.060;18.726;2022-08-02T09:09:25;100986.20;;;26.97;51.89
51147;BME280;37207;53.060;18.726;2022-08-02T09:11:53;100983.42;;;27.16;51.93
51147;BME280;37207;53.060;18.726;2022-08-02T09:14:28;100987.15;;;27.36;51.98
51147;BME280;37207;53.060;18.726;2022-08-02T09:17:08;100986.23;;;27.58;49.83
51147;BME280;37207;53.060;18.726;2022-08-02T09:19:36;100993.02;;;27.77;48.97
51147;BME280;37207;53.060;18.726;2022-08-02T09:22:05;100986.74;;;28.24;49.41
51147;BME280;37207;53.060;18.726;2022-08-02T09:24:44;100985.20;;;29.14;48.54
51147;BME280;37207;53.060;18.726;2022-08-02T09:27:17;100976.05;;;30.13;47.47
51147;BME280;37207;53.060;18.726;2022-08-02T09:29:52;100980.53;;;31.01;45.07
51147;BME280;37207;53.060;18.726;2022-08-02T09:32:20;100981.34;;;31.42;44.14
51147;BME280;37207;53.060;18.726;2022-08-02T09:34:52;100981.15;;;31.21;42.48
51147;BME280;37207;53.060;18.726;2022-08-02T09:37:27;100971.46;;;31.16;43.66
51147;BME280;37207;53.060;18.726;2022-08-02T09:39:57;100971.23;;;31.05;43.13
51147;BME280;37207;53.060;18.726;2022-08-02T09:42:31;100972.20;;;30.96;43.93
51147;BME280;37207;53.060;18.726;2022-08-02T09:45:00;100965.38;;;30.92;43.85
51147;BME280;37207;53.060;18.726;2022-08-02T09:47:29;100965.04;;;30.95;44.58
51147;BME280;37207;53.060;18.726;2022-08-02T09:50:00;100964.59;;;31.00;44.00
51147;BME280;37207;53.060;18.726;2022-08-02T09:52:31;100966.60;;;31.03;44.11
51147;BME280;37207;53.060;18.726;2022-08-02T09:55:05;100968.95;;;31.08;44.08
51147;BME280;37207;53.060;18.726;2022-08-02T09:57:32;100967.59;;;31.13;43.76
51147;BME280;37207;53.060;18.726;2022-08-02T10:00:23;100967.83;;;31.13;43.51
51147;BME280;37207;53.060;18.726;2022-08-02T10:03:08;100964.13;;;31.04;42.31
51147;BME280;37207;53.060;18.726;2022-08-02T10:05:54;100965.34;;;30.89;41.53
51147;BME280;37207;53.060;18.726;2022-08-02T10:08:22;100964.19;;;30.76;41.24
51147;BME280;37207;53.060;18.726;2022-08-02T10:10:49;100962.95;;;30.72;41.68
51147;BME280;37207;53.060;18.726;2022-08-02T10:13:33;100958.98;;;30.77;42.16
51147;BME280;37207;53.060;18.726;2022-08-02T10:16:02;100954.42;;;30.87;41.72
51147;BME280;37207;53.060;18.726;2022-08-02T10:18:30;100952.64;;;30.91;41.53
51147;BME280;37207;53.060;18.726;2022-08-02T10:21:01;100954.02;;;30.97;40.75
51147;BME280;37207;53.060;18.726;2022-08-02T10:23:33;100950.73;;;31.04;41.04
51147;BME280;37207;53.060;18.726;2022-08-02T10:26:02;100952.61;;;31.26;40.53
51147;BME280;37207;53.060;18.726;2022-08-02T10:28:30;100953.27;;;31.37;40.64
51147;BME280;37207;53.060;18.726;2022-08-02T10:31:00;100953.52;;;31.42;39.01
51147;BME280;37207;53.060;18.726;2022-08-02T10:33:28;100955.85;;;31.45;39.20
51147;BME280;37207;53.060;18.726;2022-08-02T10:35:57;100959.92;;;31.54;38.96
51147;BME280;37207;53.060;18.726;2022-08-02T10:38:26;100957.95;;;31.62;38.70
51147;BME280;37207;53.060;18.726;2022-08-02T10:40:54;100958.40;;;31.92;38.16
51147;BME280;37207;53.060;18.726;2022-08-02T10:46:36;100952.35;;;32.52;37.27
51147;BME280;37207;53.060;18.726;2022-08-02T10:49:14;100955.40;;;32.79;36.14
51147;BME280;37207;53.060;18.726;2022-08-02T10:52:12;100950.27;;;33.22;36.00
51147;BME280;37207;53.060;18.726;2022-08-02T10:55:09;100950.21;;;34.44;35.35
51147;BME280;37207;53.060;18.726;2022-08-02T10:57:37;100946.15;;;35.73;34.08
51147;BME280;37207;53.060;18.726;2022-08-02T11:00:24;100944.98;;;36.71;32.47
51147;BME280;37207;53.060;18.726;2022-08-02T11:02:52;100952.02;;;37.83;31.30
51147;BME280;37207;53.060;18.726;2022-08-02T11:05:30;100949.13;;;38.59;30.48
51147;BME280;37207;53.060;18.726;2022-08-02T11:11:00;100943.91;;;39.02;29.20
51147;BME280;37207;53.060;18.726;2022-08-02T11:13:28;100939.09;;;37.93;29.44
51147;BME280;37207;53.060;18.726;2022-08-02T11:16:02;100937.35;;;38.25;29.90
51147;BME280;37207;53.060;18.726;2022-08-02T11:19:06;100936.27;;;37.99;29.59
51147;BME280;37207;53.060;18.726;2022-08-02T11:21:34;100931.31;;;37.47;29.38
51147;BME280;37207;53.060;18.726;2022-08-02T11:24:30;100931.92;;;37.71;28.78
51147;BME280;37207;53.060;18.726;2022-08-02T11:26:59;100926.49;;;37.36;29.55
51147;BME280;37207;53.060;18.726;2022-08-02T11:29:38;100925.02;;;37.40;29.68
51147;BME280;37207;53.060;18.726;2022-08-02T11:32:08;100926.56;;;37.52;29.49
51147;BME280;37207;53.060;18.726;2022-08-02T11:34:42;100923.02;;;37.57;30.42
51147;BME280;37207;53.060;18.726;2022-08-02T11:37:10;100923.14;;;37.71;30.06
51147;BME280;37207;53.060;18.726;2022-08-02T11:39:43;100919.80;;;37.48;30.42
51147;BME280;37207;53.060;18.726;2022-08-02T11:42:16;100916.23;;;37.40;30.17
51147;BME280;37207;53.060;18.726;2022-08-02T11:44:44;100917.34;;;37.08;30.75
51147;BME280;37207;53.060;18.726;2022-08-02T11:47:12;100918.27;;;36.57;30.83
51147;BME280;37207;53.060;18.726;2022-08-02T11:49:39;100914.48;;;36.16;31.18
51147;BME280;37207;53.060;18.726;2022-08-02T11:52:07;100912.90;;;36.05;31.07
51147;BME280;37207;53.060;18.726;2022-08-02T11:54:38;100909.85;;;35.89;31.47
51147;BME280;37207;53.060;18.726;2022-08-02T11:57:19;100911.56;;;35.67;31.60
51147;BME280;37207;53.060;18.726;2022-08-02T11:59:51;100908.86;;;35.68;31.55
51147;BME280;37207;53.060;18.726;2022-08-02T12:02:30;100905.02;;;35.76;31.62
51147;BME280;37207;53.060;18.726;2022-08-02T12:05:00;100910.11;;;35.92;31.35
51147;BME280;37207;53.060;18.726;2022-08-02T12:07:37;100906.15;;;36.13;31.33
51147;BME280;37207;53.060;18.726;2022-08-02T12:10:10;100904.02;;;36.36;32.01
51147;BME280;37207;53.060;18.726;2022-08-02T12:12:55;100905.48;;;36.49;31.64
51147;BME280;37207;53.060;18.726;2022-08-02T12:15:36;100897.55;;;36.52;31.56
51147;BME280;37207;53.060;18.726;2022-08-02T12:18:13;100898.23;;;36.60;31.99
51147;BME280;37207;53.060;18.726;2022-08-02T12:21:00;100894.98;;;36.65;31.73
51147;BME280;37207;53.060;18.726;2022-08-02T12:23:28;100892.16;;;36.71;31.72
51147;BME280;37207;53.060;18.726;2022-08-02T12:26:07;100890.17;;;36.68;30.64
51147;BME280;37207;53.060;18.726;2022-08-02T12:28:37;100888.01;;;36.64;30.78
51147;BME280;37207;53.060;18.726;2022-08-02T12:31:10;100887.98;;;36.74;31.24
51147;BME280;37207;53.060;18.726;2022-08-02T12:33:54;100891.63;;;36.76;29.52
51147;BME280;37207;53.060;18.726;2022-08-02T12:36:25;100887.71;;;36.47;29.20
51147;BME280;37207;53.060;18.726;2022-08-02T12:38:58;100887.70;;;35.96;29.88
51147;BME280;37207;53.060;18.726;2022-08-02T12:41:28;100891.30;;;35.56;29.87
51147;BME280;37207;53.060;18.726;2022-08-02T12:43:56;100890.77;;;35.46;30.91
51147;BME280;37207;53.060;18.726;2022-08-02T12:46:24;100891.88;;;35.52;30.13
51147;BME280;37207;53.060;18.726;2022-08-02T12:48:51;100897.35;;;35.53;30.12
51147;BME280;37207;53.060;18.726;2022-08-02T12:51:29;100893.02;;;35.70;30.73
51147;BME280;37207;53.060;18.726;2022-08-02T12:54:24;100897.12;;;35.83;30.28
51147;BME280;37207;53.060;18.726;2022-08-02T12:56:52;100898.23;;;36.08;30.33
51147;BME280;37207;53.060;18.726;2022-08-02T12:59:36;100901.79;;;36.08;29.52
51147;BME280;37207;53.060;18.726;2022-08-02T13:02:08;100899.55;;;36.13;29.34
51147;BME280;37207;53.060;18.726;2022-08-02T13:04:37;100904.58;;;36.24;29.18
51147;BME280;37207;53.060;18.726;2022-08-02T13:07:05;100901.87;;;35.87;28.99
51147;BME280;37207;53.060;18.726;2022-08-02T13:09:38;100900.37;;;35.67;28.94
51147;BME280;37207;53.060;18.726;2022-08-02T13:12:07;100898.20;;;35.38;28.65
51147;BME280;37207;53.060;18.726;2022-08-02T13:14:37;100897.02;;;34.89;29.30
51147;BME280;37207;53.060;18.726;2022-08-02T13:17:05;100890.86;;;34.67;30.03
51147;BME280;37207;53.060;18.726;2022-08-02T13:19:33;100888.43;;;34.63;31.00